Weather at Addis Ababa Bole International Airport

Public forecast

Using degrees Celsius for public forecast. Weather courtesy of forecast.io.

Current aviation weather report (METAR) for Addis Ababa Bole International Airport

2023/03/29 06:00 (retrieved 51 minutes ago)

HAAB 290600Z 14002KT 9999 FEW020 SCT025 15/13 Q1028 NOSIG

Aviation forecast (TAF) for Addis Ababa Bole International Airport

2023/03/29 06:51 (retrieved 11 seconds ago)

TAF TAF HAAB 290330Z 2906/3012 18005KT 9999 BKN025 SCT090 BECMG 2907/2911 8000M SHRA BECMG 2913/2917 7000M RA